Time;durP1;ratioP1;P1;durP2;ratioP2;P2;SDS_P1;SDS_P2;PMS_P1;PMS_P2;Temp;Humidity;BMP_temperature;BMP_pressure;BME280_temperature;BME280_humidity;BME280_pressure;Samples;Min_cycle;Max_cycle;Signal;HPM_P1;HPM_P2
2022/08/10 00:00:54;;;;;;;1.50;1.30;;;;;;;25.26;59.76;98235.25;5035204;28;20251;-31
2022/08/10 00:03:21;;;;;;;1.37;1.27;;;;;;;25.25;59.77;98236.97;5049030;28;20220;-31
2022/08/10 00:05:48;;;;;;;1.20;1.20;;;;;;;25.24;60.18;98230.09;5036891;28;20371;-31
2022/08/10 00:08:19;;;;;;;1.50;1.40;;;;;;;25.25;59.81;98233.53;5039024;28;20287;-31
2022/08/10 00:10:53;;;;;;;1.43;1.33;;;;;;;25.24;60.16;98229.19;5040136;28;20231;-31
2022/08/10 00:13:19;;;;;;;1.10;1.10;;;;;;;25.24;60.08;98234.34;5040181;28;20205;-31
2022/08/10 00:15:46;;;;;;;1.50;1.40;;;;;;;25.26;60.23;98235.25;5049086;28;20228;-31
2022/08/10 00:18:20;;;;;;;1.53;1.43;;;;;;;25.21;60.03;98231.69;5045816;28;20532;-31
2022/08/10 00:21:00;;;;;;;1.50;1.40;;;;;;;25.26;59.81;98237.84;5048067;28;20243;-31
2022/08/10 00:23:27;;;;;;;1.50;1.40;;;;;;;25.26;60.06;98236.16;5040613;28;20296;-31
2022/08/10 00:25:54;;;;;;;1.43;1.33;;;;;;;25.26;60.06;98231.00;5046718;28;20292;-31
2022/08/10 00:28:20;;;;;;;1.50;1.40;;;;;;;25.27;59.86;98230.16;5050054;28;20644;-31
2022/08/10 00:30:47;;;;;;;1.40;1.30;;;;;;;25.25;59.82;98221.53;5051080;28;20252;-31
2022/08/10 00:33:13;;;;;;;1.50;1.40;;;;;;;25.26;59.81;98217.25;5049777;28;20297;-32
2022/08/10 00:35:40;;;;;;;1.43;1.33;;;;;;;25.25;59.88;98218.09;5048343;28;20243;-31
2022/08/10 00:38:06;;;;;;;1.50;1.40;;;;;;;25.25;60.05;98216.38;5043885;28;20288;-31
2022/08/10 00:40:33;;;;;;;1.43;1.33;;;;;;;25.25;59.68;98220.66;5046740;28;20335;-31
2022/08/10 00:43:04;;;;;;;1.30;1.20;;;;;;;25.24;59.93;98224.06;5051764;28;20218;-31
2022/08/10 00:45:31;;;;;;;1.50;1.40;;;;;;;25.14;59.98;98197.25;5051869;28;20739;-31
2022/08/10 00:47:57;;;;;;;1.37;1.30;;;;;;;25.24;60.21;98218.91;5048612;28;20672;-31
2022/08/10 00:50:24;;;;;;;1.50;1.40;;;;;;;25.24;59.76;98221.47;5042861;28;20295;-31
2022/08/10 00:52:50;;;;;;;1.30;1.30;;;;;;;25.24;59.76;98212.06;5041603;28;20312;-31
2022/08/10 00:55:17;;;;;;;1.57;1.40;;;;;;;25.25;60.24;98218.94;5049809;28;20647;-31
2022/08/10 00:57:43;;;;;;;1.20;1.20;;;;;;;25.25;59.90;98221.53;5049951;28;20551;-31
2022/08/10 01:00:20;;;;;;;1.30;1.20;;;;;;;25.25;60.28;98218.09;5048346;28;20218;-31
2022/08/10 01:02:47;;;;;;;1.20;1.20;;;;;;;25.26;59.89;98217.25;5048983;28;20260;-31
2022/08/10 01:05:13;;;;;;;1.27;1.20;;;;;;;25.20;60.30;98206.81;5043127;28;20212;-31
2022/08/10 01:08:14;;;;;;;1.50;1.40;;;;;;;25.25;59.87;98215.53;5035881;28;20208;-31
2022/08/10 01:10:52;;;;;;;1.20;1.20;;;;;;;25.24;60.15;98212.06;5045344;28;20259;-31
2022/08/10 01:13:22;;;;;;;1.27;1.20;;;;;;;25.25;60.10;98215.53;5041322;28;20254;-31
2022/08/10 01:15:57;;;;;;;1.40;1.30;;;;;;;25.20;59.86;98205.13;5050665;28;20237;-31
2022/08/10 01:18:27;;;;;;;1.33;1.30;;;;;;;25.23;59.88;98207.78;5050332;28;20894;-31
2022/08/10 01:21:14;;;;;;;1.40;1.30;;;;;;;25.23;60.16;98214.59;5050805;28;20252;-31
2022/08/10 01:24:18;;;;;;;1.20;1.20;;;;;;;25.22;59.92;98206.00;5045595;28;20239;-31
2022/08/10 01:27:06;;;;;;;1.20;1.20;;;;;;;25.14;60.33;98199.81;5047222;28;20449;-31
2022/08/10 01:29:56;;;;;;;1.60;1.50;;;;;;;25.23;59.84;98212.03;5040774;28;20723;-31
2022/08/10 01:32:49;;;;;;;1.60;1.50;;;;;;;25.23;60.27;98217.19;5049003;28;20660;-31
2022/08/10 01:35:23;;;;;;;1.40;1.30;;;;;;;25.23;59.96;98212.91;5039251;28;20201;-31
2022/08/10 01:37:57;;;;;;;1.20;1.20;;;;;;;25.22;60.18;98208.56;5029054;28;20287;-31
2022/08/10 01:40:24;;;;;;;1.50;1.40;;;;;;;25.23;60.00;98206.88;5025539;28;20274;-31
2022/08/10 01:42:51;;;;;;;1.33;1.30;;;;;;;25.23;60.17;98207.78;5044365;28;20758;-31
2022/08/10 01:45:18;;;;;;;1.30;1.30;;;;;;;25.20;59.96;98205.13;5043758;28;20198;-31
2022/08/10 01:50:49;;;;;;;1.47;1.37;;;;;;;25.23;59.82;98212.91;5039724;28;20231;-31
2022/08/10 01:53:29;;;;;;;1.23;1.20;;;;;;;25.23;60.06;98214.59;5031463;28;20208;-31
2022/08/10 01:56:08;;;;;;;1.33;1.30;;;;;;;25.23;60.00;98212.03;5025781;28;20205;-31
2022/08/10 01:58:35;;;;;;;1.10;1.10;;;;;;;25.22;60.00;98216.28;5046117;28;20292;-31
2022/08/10 02:01:01;;;;;;;1.40;1.30;;;;;;;25.22;59.78;98215.44;5024932;28;20284;-31
2022/08/10 02:03:28;;;;;;;1.27;1.20;;;;;;;25.21;60.08;98214.56;5041667;28;20776;-31
2022/08/10 02:05:55;;;;;;;1.23;1.20;;;;;;;25.21;60.03;98213.69;5046092;28;20295;-31
2022/08/10 02:08:23;;;;;;;1.33;1.33;;;;;;;25.22;60.11;98207.72;5046078;28;20237;-31
2022/08/10 02:10:49;;;;;;;1.37;1.27;;;;;;;25.17;60.29;98201.59;5051495;28;20260;-31
2022/08/10 02:13:16;;;;;;;1.40;1.30;;;;;;;25.22;60.02;98208.56;5040317;28;20656;-31
2022/08/10 02:15:44;;;;;;;1.23;1.20;;;;;;;25.14;59.89;98190.38;5036982;28;20691;-31
2022/08/10 02:18:28;;;;;;;1.57;1.47;;;;;;;25.22;60.03;98203.44;5031798;28;20233;-31
2022/08/10 02:20:55;;;;;;;1.40;1.30;;;;;;;25.14;60.32;98192.94;5044371;28;20303;-31
2022/08/10 02:23:24;;;;;;;1.30;1.20;;;;;;;25.23;60.17;98209.47;5030922;28;20201;-31
2022/08/10 02:25:51;;;;;;;1.10;1.10;;;;;;;25.23;59.93;98209.47;5039361;28;20228;-31
2022/08/10 02:28:19;;;;;;;1.40;1.30;;;;;;;25.14;60.24;98198.09;5047724;28;20293;-31
2022/08/10 02:31:04;;;;;;;1.47;1.37;;;;;;;25.11;60.14;98186.88;5032920;28;20244;-31
2022/08/10 02:33:32;;;;;;;1.10;1.10;;;;;;;25.22;60.36;98210.31;5041091;28;20348;-31
2022/08/10 02:36:07;;;;;;;1.20;1.20;;;;;;;25.10;60.22;98187.69;5047892;28;20267;-31
2022/08/10 02:38:36;;;;;;;1.30;1.20;;;;;;;25.20;59.84;98201.66;5031762;28;20208;-31
2022/08/10 02:41:39;;;;;;;1.10;1.10;;;;;;;25.20;60.37;98202.53;5032580;28;20657;-31
2022/08/10 02:44:40;;;;;;;1.30;1.20;;;;;;;25.21;60.29;98195.69;5040396;28;20208;-31
2022/08/10 02:47:47;;;;;;;1.60;1.50;;;;;;;25.21;60.21;98200.81;5034802;28;20496;-31
2022/08/10 02:50:34;;;;;;;1.23;1.23;;;;;;;25.21;60.03;98203.41;5034005;28;20254;-31
2022/08/10 02:53:22;;;;;;;1.10;1.10;;;;;;;25.21;60.44;98199.13;5048266;28;20205;-31
2022/08/10 02:56:11;;;;;;;1.20;1.20;;;;;;;25.22;60.17;98200.00;5044346;28;20210;-31
2022/08/10 02:58:39;;;;;;;1.20;1.20;;;;;;;25.21;60.35;98201.69;5047855;28;20292;-31
2022/08/10 03:03:51;;;;;;;1.50;1.40;;;;;;;25.21;60.34;98200.81;5025323;28;20704;-23
2022/08/10 03:06:19;;;;;;;1.50;1.40;;;;;;;25.21;60.35;98212.00;5007167;28;20288;-22
2022/08/10 03:08:46;;;;;;;1.50;1.40;;;;;;;25.21;60.15;98200.81;5005036;28;20229;-23
2022/08/10 03:11:17;;;;;;;1.43;1.33;;;;;;;25.13;60.26;98188.66;4986622;28;20300;-22
2022/08/10 03:14:03;;;;;;;1.40;1.30;;;;;;;25.19;59.88;98195.63;5024933;28;20201;-22
2022/08/10 03:16:30;;;;;;;1.47;1.37;;;;;;;25.19;60.18;98193.06;5008298;28;20710;-23
2022/08/10 03:19:00;;;;;;;1.40;1.30;;;;;;;25.20;60.44;98187.09;5006114;28;20201;-22
2022/08/10 03:21:27;;;;;;;1.37;1.30;;;;;;;25.04;60.18;98164.38;5021382;28;20627;-23
2022/08/10 03:23:53;;;;;;;1.50;1.40;;;;;;;25.20;59.97;98194.81;5021243;28;20314;-22
2022/08/10 03:26:20;;;;;;;1.23;1.23;;;;;;;25.02;60.28;98161.78;5025703;28;20290;-22
2022/08/10 03:28:47;;;;;;;1.40;1.30;;;;;;;24.99;60.37;98168.56;5009204;28;20233;-22
2022/08/10 03:31:13;;;;;;;1.40;1.30;;;;;;;25.20;60.00;98192.25;5007351;28;20218;-22
2022/08/10 03:33:40;;;;;;;1.33;1.23;;;;;;;25.21;60.25;98198.25;5025032;28;20296;-22
2022/08/10 03:36:07;;;;;;;1.30;1.23;;;;;;;25.21;60.07;98199.13;5004968;28;20280;-22
2022/08/10 03:38:54;;;;;;;1.10;1.10;;;;;;;25.21;60.08;98198.25;5012059;28;20203;-22
2022/08/10 03:41:28;;;;;;;1.20;1.20;;;;;;;25.16;59.98;98187.84;5007696;28;20194;-22
2022/08/10 03:44:01;;;;;;;1.10;1.10;;;;;;;25.21;60.11;98187.97;5025286;28;20259;-22
2022/08/10 03:46:27;;;;;;;1.10;1.10;;;;;;;25.20;59.97;98196.50;5024569;28;20659;-23
2022/08/10 03:48:55;;;;;;;1.40;1.30;;;;;;;25.20;60.03;98194.81;5001207;28;20253;-23
2022/08/10 03:51:22;;;;;;;1.50;1.40;;;;;;;25.13;60.14;98186.06;5025279;28;20261;-22
2022/08/10 03:53:48;;;;;;;1.47;1.37;;;;;;;25.19;60.05;98197.34;5008950;28;20236;-21
2022/08/10 03:56:37;;;;;;;1.20;1.20;;;;;;;24.91;60.32;98152.94;5025529;28;20578;-22
2022/08/10 03:59:07;;;;;;;1.47;1.37;;;;;;;25.19;60.14;98195.63;5008606;28;20225;-21
2022/08/10 04:01:34;;;;;;;1.40;1.30;;;;;;;25.20;60.08;98199.09;5026501;28;20264;-22
2022/08/10 04:04:21;;;;;;;1.50;1.40;;;;;;;25.14;60.35;98197.25;5028466;28;20565;-22
2022/08/10 04:06:51;;;;;;;1.20;1.20;;;;;;;25.20;60.13;98209.38;5028418;28;20562;-23
2022/08/10 04:09:21;;;;;;;1.30;1.20;;;;;;;25.19;60.05;98205.94;5029087;28;20581;-22
2022/08/10 04:11:47;;;;;;;1.37;1.27;;;;;;;25.20;60.66;98202.53;5030492;28;20256;-22
2022/08/10 04:14:14;;;;;;;1.50;1.40;;;;;;;25.21;60.05;98203.41;5030022;28;20288;-23
2022/08/10 04:17:00;;;;;;;1.20;1.20;;;;;;;25.20;60.15;98205.13;5029834;28;20210;-22
2022/08/10 04:19:27;;;;;;;1.47;1.40;;;;;;;25.16;60.33;98210.16;5029796;28;20279;-22
2022/08/10 04:21:59;;;;;;;1.50;1.40;;;;;;;25.20;60.19;98211.94;5028974;28;20249;-23
2022/08/10 04:24:25;;;;;;;1.37;1.30;;;;;;;25.15;60.42;98211.84;5027683;28;20240;-22
2022/08/10 04:26:59;;;;;;;1.40;1.30;;;;;;;25.11;60.08;98199.75;5014814;28;20202;-21
2022/08/10 04:29:26;;;;;;;1.50;1.40;;;;;;;25.14;60.16;98210.09;5010290;28;20641;-23
2022/08/10 04:31:52;;;;;;;1.40;1.30;;;;;;;25.19;60.10;98220.50;5027527;28;20320;-22
2022/08/10 04:34:19;;;;;;;1.30;1.20;;;;;;;23.96;60.13;98005.56;5027201;28;20953;-22
2022/08/10 04:36:46;;;;;;;1.53;1.43;;;;;;;25.19;60.26;98223.94;5024955;28;20638;-23
2022/08/10 04:39:13;;;;;;;1.10;1.10;;;;;;;25.19;60.26;98220.50;5015224;28;20237;-22
2022/08/10 04:41:40;;;;;;;1.23;1.23;;;;;;;25.19;60.39;98226.50;5019239;28;20704;-22
2022/08/10 04:44:12;;;;;;;1.43;1.33;;;;;;;25.20;60.43;98222.25;5016130;28;20239;-22
2022/08/10 04:46:39;;;;;;;1.33;1.33;;;;;;;25.21;60.18;98223.97;5001144;28;20285;-22
2022/08/10 04:49:24;;;;;;;1.20;1.20;;;;;;;25.21;60.24;98226.53;5017332;28;20198;-23
2022/08/10 04:52:10;;;;;;;1.37;1.30;;;;;;;25.21;60.28;98231.69;5014348;28;20438;-22
2022/08/10 04:54:37;;;;;;;1.40;1.30;;;;;;;25.21;60.16;98235.16;5026140;28;20240;-22
2022/08/10 04:57:04;;;;;;;1.20;1.20;;;;;;;25.20;60.09;98232.53;5019669;28;20236;-23
2022/08/10 04:59:30;;;;;;;1.40;1.30;;;;;;;25.20;60.10;98232.53;5026032;28;20304;-23
2022/08/10 05:01:57;;;;;;;1.47;1.37;;;;;;;25.19;60.13;98235.94;5023671;28;20270;-22
2022/08/10 05:04:43;;;;;;;1.30;1.30;;;;;;;25.19;60.10;98235.94;5023786;28;20208;-22
2022/08/10 05:07:12;;;;;;;1.50;1.40;;;;;;;25.19;60.44;98236.81;5026322;28;20296;-22
2022/08/10 05:09:44;;;;;;;1.40;1.30;;;;;;;25.14;60.07;98228.13;5025011;28;20210;-22
2022/08/10 05:12:31;;;;;;;1.20;1.20;;;;;;;25.20;60.34;98241.13;5025355;28;20229;-23
2022/08/10 05:15:12;;;;;;;1.23;1.23;;;;;;;25.20;60.21;98248.84;5019526;28;20229;-22
2022/08/10 05:17:40;;;;;;;1.50;1.40;;;;;;;25.21;60.43;98252.28;5023035;28;20748;-22
2022/08/10 05:20:26;;;;;;;1.40;1.30;;;;;;;25.21;60.74;98244.56;5019926;28;20572;-22
2022/08/10 05:22:53;;;;;;;1.27;1.17;;;;;;;25.21;60.27;98242.88;5023256;28;20252;-22
2022/08/10 05:25:19;;;;;;;1.60;1.50;;;;;;;25.23;60.03;98253.19;5024597;28;20244;-22
2022/08/10 05:27:46;;;;;;;2.43;2.00;;;;;;;25.22;58.60;98242.03;5032777;28;20205;-22
2022/08/10 05:30:17;;;;;;;3.30;2.03;;;;;;;25.11;58.05;98220.31;5033218;28;20240;-22
2022/08/10 05:32:44;;;;;;;2.03;1.70;;;;;;;25.22;58.46;98247.16;5025391;28;20256;-22
2022/08/10 05:35:23;;;;;;;2.17;1.80;;;;;;;25.19;58.85;98249.66;5020338;28;20197;-22
2022/08/10 05:37:51;;;;;;;1.80;1.70;;;;;;;25.22;58.87;98247.16;5015026;28;20249;-22
2022/08/10 05:40:38;;;;;;;1.80;1.70;;;;;;;25.21;59.41;98260.88;5023384;28;20217;-23
2022/08/10 05:43:04;;;;;;;2.33;1.50;;;;;;;25.21;59.24;98237.72;5026081;28;20304;-23
2022/08/10 05:45:31;;;;;;;1.70;1.60;;;;;;;25.22;59.30;98241.19;5025721;28;20724;-23
2022/08/10 05:47:57;;;;;;;1.97;1.80;;;;;;;25.23;59.78;98237.75;5027768;28;20609;-22
2022/08/10 05:50:44;;;;;;;1.77;1.60;;;;;;;25.21;59.97;98232.56;5020027;28;20208;-22
2022/08/10 05:53:11;;;;;;;3.20;1.63;;;;;;;25.22;59.90;98231.72;5018063;28;20322;-22
2022/08/10 05:55:58;;;;;;;1.87;1.60;;;;;;;25.17;59.66;98225.63;5007630;28;20205;-22
2022/08/10 05:58:24;;;;;;;1.50;1.40;;;;;;;25.06;59.56;98209.91;5007698;28;20301;-22
2022/08/10 06:00:54;;;;;;;1.70;1.57;;;;;;;25.24;59.75;98234.34;5024533;28;20684;-22
2022/08/10 06:03:26;;;;;;;3.40;1.83;;;;;;;25.19;59.89;98221.38;5017295;28;20606;-22
2022/08/10 06:05:54;;;;;;;1.93;1.83;;;;;;;25.20;59.63;98225.69;5029978;28;20783;-22
2022/08/10 06:08:23;;;;;;;3.67;1.90;;;;;;;25.24;59.83;98229.19;5026426;28;20733;-23
2022/08/10 06:10:53;;;;;;;3.10;1.80;;;;;;;25.23;59.90;98228.34;5023212;28;20795;-23
2022/08/10 06:16:42;;;;;;;2.00;1.80;;;;;;;25.22;59.85;98225.75;5021562;28;20802;-22
2022/08/10 06:19:09;;;;;;;5.83;1.87;;;;;;;25.22;59.91;98228.31;5026347;28;20301;-22
2022/08/10 06:21:39;;;;;;;2.00;1.80;;;;;;;25.21;59.69;98230.00;5023615;28;20722;-22
2022/08/10 06:24:29;;;;;;;1.70;1.60;;;;;;;25.22;59.92;98218.03;5020754;28;20206;-22
2022/08/10 06:26:57;;;;;;;2.13;1.50;;;;;;;25.22;59.73;98221.44;5017623;28;20599;-22
2022/08/10 06:29:24;;;;;;;1.70;1.60;;;;;;;25.22;59.63;98223.16;5023854;28;20229;-22
2022/08/10 06:31:51;;;;;;;2.30;1.83;;;;;;;25.22;59.68;98231.72;5022662;28;20229;-22
2022/08/10 06:34:27;;;;;;;1.80;1.70;;;;;;;25.05;59.80;98202.16;5024988;28;20233;-24
2022/08/10 06:36:55;;;;;;;3.93;1.70;;;;;;;25.05;59.68;98209.88;5012603;28;20691;-22
2022/08/10 06:39:21;;;;;;;2.47;1.90;;;;;;;25.16;59.36;98221.28;5010282;28;20289;-22
2022/08/10 06:42:06;;;;;;;3.67;1.90;;;;;;;25.23;59.51;98233.50;5008930;28;20769;-23
2022/08/10 06:44:50;;;;;;;1.97;1.80;;;;;;;25.05;58.88;98203.00;5020722;28;20263;-22
2022/08/10 06:47:17;;;;;;;1.60;1.50;;;;;;;23.88;58.99;97999.31;4996509;28;21070;-24
2022/08/10 06:49:49;;;;;;;2.47;1.77;;;;;;;25.22;58.88;98226.59;5014135;28;20252;-22
2022/08/10 06:52:16;;;;;;;2.43;1.90;;;;;;;25.03;58.97;98206.38;5013804;28;20310;-22
2022/08/10 06:54:43;;;;;;;2.00;1.80;;;;;;;25.22;59.03;98229.16;5013015;28;20210;-21
2022/08/10 06:57:10;;;;;;;1.90;1.70;;;;;;;25.05;59.26;98207.28;5013619;28;20297;-23
2022/08/10 06:59:44;;;;;;;1.90;1.80;;;;;;;25.21;59.63;98230.00;4996991;28;20260;-22
2022/08/10 07:02:13;;;;;;;2.40;1.90;;;;;;;25.17;59.08;98224.75;5019363;28;20284;-22
2022/08/10 07:05:00;;;;;;;2.03;1.83;;;;;;;25.23;59.59;98225.78;5013748;28;20256;-22
2022/08/10 07:07:28;;;;;;;3.30;1.90;;;;;;;25.20;59.20;98228.28;5000153;28;20289;-34
2022/08/10 07:09:56;;;;;;;6.47;1.93;;;;;;;25.23;59.55;98230.94;5017068;28;20256;-22
2022/08/10 07:12:24;;;;;;;2.27;1.90;;;;;;;25.21;59.25;98223.97;5024055;28;20674;-23
2022/08/10 07:14:50;;;;;;;2.80;2.00;;;;;;;25.25;59.23;98231.81;5007899;28;20233;-23
2022/08/10 07:17:24;;;;;;;2.93;2.00;;;;;;;25.26;59.39;98233.56;5008874;28;20664;-22
2022/08/10 07:19:53;;;;;;;3.17;2.10;;;;;;;25.08;59.43;98207.38;5005707;28;20265;-22
2022/08/10 07:22:25;;;;;;;2.83;2.00;;;;;;;25.26;59.21;98230.13;5005632;28;20222;-22
2022/08/10 07:25:11;;;;;;;3.00;1.90;;;;;;;25.07;59.29;98195.31;5004907;28;20208;-22
2022/08/10 07:27:38;;;;;;;4.53;2.03;;;;;;;25.26;59.35;98237.84;5005599;28;20300;-22
2022/08/10 07:30:27;;;;;;;2.80;2.20;;;;;;;25.07;59.23;98201.34;5025670;28;20202;-22
2022/08/10 07:32:53;;;;;;;1.93;1.67;;;;;;;25.09;58.82;98204.84;5023583;28;20233;-23
2022/08/10 07:35:20;;;;;;;4.40;1.80;;;;;;;25.24;59.39;98229.19;5012246;28;20309;-23
2022/08/10 07:37:48;;;;;;;6.57;2.10;;;;;;;25.23;59.29;98235.19;5024934;28;20233;-22
2022/08/10 07:40:16;;;;;;;1.90;1.80;;;;;;;25.17;59.25;98218.75;5010071;28;20229;-22
2022/08/10 07:42:43;;;;;;;2.87;2.10;;;;;;;25.22;59.63;98230.88;5008597;28;20219;-22
2022/08/10 07:45:11;;;;;;;2.10;1.90;;;;;;;25.22;59.30;98218.88;5017987;28;20206;-22
2022/08/10 07:47:58;;;;;;;4.27;2.00;;;;;;;25.22;59.44;98218.03;5021254;28;20244;-23
2022/08/10 07:50:32;;;;;;;3.07;1.90;;;;;;;24.98;59.68;98177.97;5020975;28;20612;-22
2022/08/10 07:53:01;;;;;;;3.73;1.97;;;;;;;25.09;59.71;98199.69;5010366;28;20225;-23
2022/08/10 07:55:30;;;;;;;2.70;2.30;;;;;;;25.21;59.87;98213.69;5025111;28;20228;-23
2022/08/10 07:58:17;;;;;;;4.97;2.00;;;;;;;25.21;59.37;98227.44;5007783;28;20585;-23
2022/08/10 08:00:44;;;;;;;6.00;2.13;;;;;;;25.19;59.41;98207.66;5021139;28;20310;-23
2022/08/10 08:03:11;;;;;;;1.80;1.70;;;;;;;24.99;59.47;98179.69;5022599;28;20320;-22
2022/08/10 08:05:38;;;;;;;3.00;1.80;;;;;;;25.18;59.66;98217.06;5004934;28;20221;-22
2022/08/10 08:08:25;;;;;;;4.57;2.00;;;;;;;25.25;59.65;98220.66;5011062;28;20197;-23
2022/08/10 08:10:54;;;;;;;2.17;1.80;;;;;;;25.22;59.64;98212.88;5023517;28;20206;-23
2022/08/10 08:13:21;;;;;;;2.70;1.90;;;;;;;25.20;59.38;98212.84;5024761;28;20313;-22
2022/08/10 08:15:48;;;;;;;4.80;1.97;;;;;;;25.24;59.82;98219.78;5021899;28;20244;-22
2022/08/10 08:18:35;;;;;;;2.00;1.90;;;;;;;25.21;59.29;98212.00;5014972;28;20210;-23
2022/08/10 08:21:02;;;;;;;2.67;1.83;;;;;;;25.13;59.27;98199.78;5008174;28;20559;-22
2022/08/10 08:23:50;;;;;;;2.07;1.87;;;;;;;25.03;59.25;98181.53;5023316;28;20206;-22
2022/08/10 08:26:36;;;;;;;5.73;1.90;;;;;;;25.08;59.51;98191.94;5010786;28;20197;-21
2022/08/10 08:29:03;;;;;;;2.87;2.10;;;;;;;25.13;59.70;98192.06;5019940;28;20376;-22
2022/08/10 08:31:30;;;;;;;2.10;1.97;;;;;;;25.25;59.68;98210.38;5005963;28;20272;-22
2022/08/10 08:33:57;;;;;;;2.37;1.80;;;;;;;25.24;59.81;98211.19;5019686;28;20304;-24
2022/08/10 08:36:25;;;;;;;2.60;2.10;;;;;;;25.02;59.65;98181.50;5027513;28;20295;-23
2022/08/10 08:38:51;;;;;;;2.97;2.20;;;;;;;25.01;59.62;98172.00;5023651;28;21413;-22
2022/08/10 08:41:24;;;;;;;2.60;1.77;;;;;;;25.23;59.77;98218.06;5023018;28;20233;-21
2022/08/10 08:44:15;;;;;;;1.67;1.57;;;;;;;25.24;59.55;98213.75;5023232;28;20288;-22
2022/08/10 08:46:54;;;;;;;4.23;1.90;;;;;;;25.23;59.49;98215.47;5025536;28;20676;-22
2022/08/10 08:50:00;;;;;;;2.07;1.87;;;;;;;25.24;59.35;98213.75;5022279;28;20209;-22
2022/08/10 08:52:50;;;;;;;2.20;1.80;;;;;;;25.23;59.70;98214.59;5027524;28;20229;-23
2022/08/10 08:55:40;;;;;;;3.93;2.00;;;;;;;25.19;59.40;98205.06;5027868;28;20228;-23
2022/08/10 08:58:46;;;;;;;2.00;1.83;;;;;;;25.23;59.29;98205.19;5015269;28;20220;-23
2022/08/10 09:01:25;;;;;;;2.90;2.00;;;;;;;25.24;59.67;98216.34;5024771;28;20310;-23
2022/08/10 09:04:51;;;;;;;4.43;1.80;;;;;;;25.24;59.43;98213.75;5085151;22;20630;-30
2022/08/10 09:07:47;;;;;;;3.37;1.80;;;;;;;25.23;59.45;98215.47;5091693;28;20308;-31
2022/08/10 09:10:49;;;;;;;16.83;2.37;;;;;;;25.23;60.20;98218.06;5045857;28;20214;-31
2022/08/10 09:13:32;;;;;;;18.83;2.33;;;;;;;25.24;60.15;98221.47;5090037;28;20305;-32
2022/08/10 09:16:30;;;;;;;6.10;2.43;;;;;;;25.25;60.85;98212.94;5071152;28;20280;-31
2022/08/10 09:19:09;;;;;;;22.23;3.30;;;;;;;25.26;61.47;98213.00;5087975;28;20925;-32
2022/08/10 09:21:59;;;;;;;26.10;3.80;;;;;;;25.28;61.26;98219.03;5073798;28;20753;-31
2022/08/10 09:25:16;;;;;;;10.97;2.63;;;;;;;25.30;61.20;98219.94;5084557;28;20222;-32
2022/08/10 09:27:46;;;;;;;25.20;3.77;;;;;;;25.33;61.37;98221.75;5101413;27;20288;-31
2022/08/10 09:30:17;;;;;;;10.83;2.80;;;;;;;25.35;59.22;98225.25;5071636;28;20212;-31
2022/08/10 09:33:00;;;;;;;13.83;2.87;;;;;;;25.37;59.37;98221.88;5087717;28;20884;-32
2022/08/10 09:36:11;;;;;;;8.77;2.40;;;;;;;25.39;59.62;98222.78;5084424;28;20215;-31
2022/08/10 09:39:15;;;;;;;7.27;2.50;;;;;;;25.41;59.74;98217.69;5089062;28;20287;-32
2022/08/10 09:42:09;;;;;;;9.83;2.50;;;;;;;25.42;59.61;98214.25;5090975;28;20219;-32
2022/08/10 09:45:22;;;;;;;15.97;2.77;;;;;;;25.39;59.32;98202.19;5089021;28;20662;-32
2022/08/10 09:48:05;;;;;;;8.33;2.20;;;;;;;25.40;59.59;98206.50;5043326;28;20204;-31
2022/08/10 09:50:36;;;;;;;6.67;2.27;;;;;;;25.39;59.53;98201.31;5082899;28;20231;-32
2022/08/10 09:53:44;;;;;;;4.47;2.30;;;;;;;25.38;59.38;98192.75;5069836;28;20224;-31
2022/08/10 09:56:35;;;;;;;8.97;2.23;;;;;;;25.28;59.65;98180.44;5077995;28;20336;-31
2022/08/10 09:59:42;;;;;;;7.77;2.60;;;;;;;25.36;59.82;98186.69;5083222;28;20649;-31
2022/08/10 10:02:47;;;;;;;9.27;2.60;;;;;;;25.36;59.53;98198.66;5046529;28;20231;-31
2022/08/10 10:05:43;;;;;;;7.53;2.47;;;;;;;25.34;59.91;98196.06;5040129;28;20205;-31
2022/08/10 10:08:20;;;;;;;5.87;2.53;;;;;;;25.34;59.97;98193.47;5063993;28;20264;-31
2022/08/10 10:11:02;;;;;;;5.87;2.03;;;;;;;25.32;59.64;98184.88;5084600;28;20207;-31
2022/08/10 10:13:43;;;;;;;5.30;1.90;;;;;;;25.31;60.34;98162.50;5088545;28;20256;-31
2022/08/10 10:16:55;;;;;;;5.70;2.40;;;;;;;25.30;59.63;98173.63;5084532;28;20198;-31
2022/08/10 10:19:40;;;;;;;5.87;1.97;;;;;;;25.29;60.01;98192.47;5082902;28;20598;-31
2022/08/10 10:22:25;;;;;;;3.87;1.80;;;;;;;25.29;60.03;98181.31;5089439;28;20293;-31
2022/08/10 10:25:02;;;;;;;6.27;2.30;;;;;;;25.29;59.69;98174.47;5090408;28;20733;-31
2022/08/10 10:28:07;;;;;;;3.17;2.03;;;;;;;25.30;59.75;98189.06;5083118;28;20281;-31
2022/08/10 10:30:37;;;;;;;3.97;2.43;;;;;;;25.31;60.03;98184.81;5086640;28;20290;-31
2022/08/10 10:33:25;;;;;;;3.97;2.10;;;;;;;25.27;59.81;98168.41;5087994;28;20255;-31
2022/08/10 10:35:55;;;;;;;5.57;2.07;;;;;;;25.30;60.01;98176.19;5086368;28;20306;-31
2022/08/10 10:38:25;;;;;;;4.23;2.10;;;;;;;25.20;60.15;98153.66;5066939;28;20204;-31
2022/08/10 10:41:23;;;;;;;4.27;2.20;;;;;;;25.28;60.05;98170.13;5069664;28;20304;-31
2022/08/10 10:44:03;;;;;;;8.13;2.30;;;;;;;25.29;59.77;98158.16;5088152;28;20282;-32
2022/08/10 10:46:49;;;;;;;4.90;1.87;;;;;;;25.30;59.93;98165.03;5088760;28;20195;-31
2022/08/10 10:49:20;;;;;;;3.17;1.77;;;;;;;24.63;60.02;98047.59;5084676;28;20200;-31
2022/08/10 10:51:55;;;;;;;4.13;2.30;;;;;;;25.29;60.18;98163.31;5083316;28;20736;-31
2022/08/10 10:54:39;;;;;;;4.37;2.20;;;;;;;25.22;60.11;98144.25;5087818;28;20297;-31
2022/08/10 10:57:18;;;;;;;5.50;2.00;;;;;;;25.19;60.22;98145.91;5072059;28;20746;-31
2022/08/10 10:59:54;;;;;;;3.03;2.10;;;;;;;25.26;60.08;98156.38;5087347;28;20242;-31
2022/08/10 11:02:41;;;;;;;4.87;2.43;;;;;;;25.25;59.96;98159.78;5079403;28;20300;-31
2022/08/10 11:05:14;;;;;;;3.67;2.13;;;;;;;25.25;60.22;98157.19;5078703;28;20195;-31
2022/08/10 11:07:48;;;;;;;3.80;1.90;;;;;;;25.24;59.96;98149.44;5089035;28;20238;-31
2022/08/10 11:10:41;;;;;;;2.87;2.30;;;;;;;25.14;60.30;98138.94;5086283;28;20199;-31
2022/08/10 11:13:33;;;;;;;3.77;2.20;;;;;;;25.23;59.95;98140.00;5063863;28;20676;-31
2022/08/10 11:16:30;;;;;;;4.50;2.43;;;;;;;25.23;60.37;98152.84;5089490;28;20213;-31
2022/08/10 11:19:18;;;;;;;4.60;2.50;;;;;;;25.22;60.19;98140.84;5084563;28;20203;-31
2022/08/10 11:22:06;;;;;;;7.33;2.53;;;;;;;25.22;60.41;98138.25;5083212;28;20684;-31
2022/08/10 11:24:48;;;;;;;5.27;2.43;;;;;;;25.22;60.33;98157.13;5087098;28;20239;-31
2022/08/10 11:27:37;;;;;;;2.97;2.10;;;;;;;25.23;59.88;98145.13;5086178;28;20230;-31
2022/08/10 11:30:08;;;;;;;6.03;2.47;;;;;;;25.17;59.93;98153.59;5087075;28;20199;-31
2022/08/10 11:32:37;;;;;;;5.13;2.40;;;;;;;25.23;60.06;98152.84;5069182;28;20350;-31
2022/08/10 11:35:40;;;;;;;5.80;2.53;;;;;;;25.24;60.20;98146.88;5089165;28;20314;-32
2022/08/10 11:38:22;;;;;;;7.43;2.90;;;;;;;25.27;60.06;98159.81;5073138;28;20295;-31
2022/08/10 11:41:00;;;;;;;5.67;2.50;;;;;;;25.25;60.09;98148.63;5081743;28;20203;-31
2022/08/10 11:43:52;;;;;;;3.87;2.37;;;;;;;25.24;59.76;98152.00;5084294;28;20222;-31
2022/08/10 11:46:25;;;;;;;4.90;2.67;;;;;;;25.26;60.15;98148.66;5066425;28;20238;-31
2022/08/10 11:49:20;;;;;;;7.77;2.73;;;;;;;25.18;59.90;98127.00;5082941;28;20293;-31
2022/08/10 11:51:47;;;;;;;4.70;2.70;;;;;;;25.25;60.26;98138.34;5069607;28;20230;-31
2022/08/10 11:54:25;;;;;;;4.57;2.53;;;;;;;25.24;59.75;98132.31;5071530;28;20311;-31
2022/08/10 11:56:52;;;;;;;3.20;2.43;;;;;;;25.22;59.91;98130.53;5082148;28;20291;-31
2022/08/10 12:02:15;;;;;;;6.27;2.67;;;;;;;25.16;60.18;98114.97;5080646;28;20258;-31
2022/08/10 12:04:47;;;;;;;4.73;2.47;;;;;;;25.23;60.05;98117.72;5070930;28;20200;-31
2022/08/10 12:07:14;;;;;;;5.37;2.77;;;;;;;25.24;60.26;98116.00;5067360;28;20238;-31
2022/08/10 12:10:00;;;;;;;10.37;2.53;;;;;;;25.23;60.06;98122.88;5069335;28;20214;-31
2022/08/10 12:13:01;;;;;;;4.10;2.70;;;;;;;25.16;60.24;98115.81;5087472;28;20306;-31
2022/08/10 12:15:46;;;;;;;3.77;2.37;;;;;;;25.24;60.20;98128.84;5079403;28;20291;-31
2022/08/10 12:18:16;;;;;;;6.73;2.30;;;;;;;25.22;59.75;98125.41;5088407;28;20347;-31
2022/08/10 12:20:42;;;;;;;2.63;2.30;;;;;;;25.23;60.36;98125.44;5087081;28;20239;-32
2022/08/10 12:23:21;;;;;;;3.00;2.10;;;;;;;25.23;60.00;98122.88;5085930;28;20671;-32
2022/08/10 12:26:11;;;;;;;3.23;2.57;;;;;;;25.11;59.98;98095.13;5072569;28;20246;-31
2022/08/10 12:28:39;;;;;;;3.17;2.53;;;;;;;25.23;59.85;98119.41;5087249;28;20536;-31